createdAt,value
2017-06-24T00:01:21.789Z,48.70
2017-06-24T00:03:49.281Z,49.30
2017-06-24T00:06:16.793Z,48.80
2017-06-24T00:08:44.302Z,48.70
2017-06-24T00:11:11.813Z,48.80
2017-06-24T00:13:39.297Z,48.90
2017-06-24T00:16:06.789Z,49.00
2017-06-24T00:18:34.297Z,49.10
2017-06-24T00:21:01.793Z,49.20
2017-06-24T00:23:29.301Z,49.30
2017-06-24T00:25:56.794Z,49.40
2017-06-24T00:28:24.305Z,49.50
2017-06-24T00:30:51.825Z,49.50
2017-06-24T00:33:19.314Z,49.60
2017-06-24T00:35:46.817Z,49.60
2017-06-24T00:38:14.310Z,50.10
2017-06-24T00:40:41.800Z,49.90
2017-06-24T00:43:09.305Z,50.00
2017-06-24T00:45:36.798Z,50.00
2017-06-24T00:48:04.309Z,50.00
2017-06-24T00:50:31.803Z,49.90
2017-06-24T00:52:59.297Z,50.20
2017-06-24T00:55:26.806Z,50.30
2017-06-24T00:57:54.301Z,50.30
2017-06-24T01:00:21.805Z,50.30
2017-06-24T01:02:49.297Z,50.40
2017-06-24T01:05:16.790Z,50.50
2017-06-24T01:07:44.293Z,50.50
2017-06-24T01:10:11.781Z,50.50
2017-06-24T01:12:39.290Z,50.50
2017-06-24T01:15:06.778Z,50.50
2017-06-24T01:17:34.278Z,50.50
2017-06-24T01:20:01.788Z,50.50
2017-06-24T01:22:29.278Z,50.60
2017-06-24T01:24:56.785Z,50.60
2017-06-24T01:27:24.273Z,50.70
2017-06-24T01:29:51.770Z,50.60
2017-06-24T01:32:19.274Z,50.60
2017-06-24T01:34:46.766Z,50.60
2017-06-24T01:37:14.277Z,50.50
2017-06-24T01:39:41.778Z,50.60
2017-06-24T01:42:09.265Z,50.50
2017-06-24T01:44:36.769Z,50.40
2017-06-24T01:47:04.261Z,50.50
2017-06-24T01:49:31.773Z,50.70
2017-06-24T01:51:59.277Z,50.60
2017-06-24T01:54:26.769Z,50.50
2017-06-24T01:56:54.278Z,50.70
2017-06-24T01:59:21.770Z,50.70
2017-06-24T02:01:49.273Z,51.00
2017-06-24T02:04:16.765Z,51.10
2017-06-24T02:06:44.257Z,51.10
2017-06-24T02:09:11.765Z,51.00
2017-06-24T02:11:39.257Z,50.90
2017-06-24T02:14:06.765Z,50.80
2017-06-24T02:16:34.261Z,50.80
2017-06-24T02:19:01.757Z,50.70
2017-06-24T02:21:29.261Z,50.70
2017-06-24T02:23:56.753Z,50.60
2017-06-24T02:26:24.253Z,50.80
2017-06-24T02:28:51.745Z,50.50
2017-06-24T02:31:19.237Z,51.00
2017-06-24T02:33:46.749Z,51.00
2017-06-24T02:36:14.243Z,51.10
2017-06-24T02:38:41.753Z,51.10
2017-06-24T02:41:09.246Z,51.10
2017-06-24T02:43:36.735Z,51.20
2017-06-24T02:46:04.238Z,51.40
2017-06-24T02:48:31.730Z,51.60
2017-06-24T02:50:59.237Z,51.60
2017-06-24T02:53:26.734Z,51.70
2017-06-24T02:55:54.225Z,51.80
2017-06-24T02:58:21.729Z,51.90
2017-06-24T03:00:49.218Z,52.00
2017-06-24T03:03:16.728Z,52.00
2017-06-24T03:05:44.230Z,51.90
2017-06-24T03:08:11.726Z,51.90
2017-06-24T03:10:39.231Z,52.00
2017-06-24T03:13:06.745Z,52.00
2017-06-24T03:15:34.248Z,52.00
2017-06-24T03:18:01.742Z,52.10
2017-06-24T03:20:29.229Z,52.10
2017-06-24T03:22:56.741Z,52.20
2017-06-24T03:25:24.234Z,52.30
2017-06-24T03:27:51.737Z,52.30
2017-06-24T03:30:19.233Z,52.30
2017-06-24T03:32:46.726Z,52.30
2017-06-24T03:35:14.229Z,52.40
2017-06-24T03:37:41.725Z,52.40
2017-06-24T03:40:09.235Z,52.40
2017-06-24T03:42:36.730Z,52.40
2017-06-24T03:45:04.229Z,52.60
2017-06-24T03:47:31.742Z,52.60
2017-06-24T03:49:59.229Z,52.50
2017-06-24T03:52:26.737Z,52.60
2017-06-24T03:54:54.230Z,52.60
2017-06-24T03:57:21.722Z,52.70
2017-06-24T03:59:49.230Z,52.70
2017-06-24T04:02:16.717Z,52.70
2017-06-24T04:04:44.230Z,52.90
2017-06-24T04:07:11.726Z,53.00
2017-06-24T04:09:39.218Z,53.20
2017-06-24T04:12:06.733Z,53.20
2017-06-24T04:14:34.251Z,53.20
2017-06-24T04:17:01.762Z,53.00
2017-06-24T04:19:29.249Z,53.10
2017-06-24T04:21:56.738Z,53.20
2017-06-24T04:24:24.250Z,53.30
2017-06-24T04:26:51.742Z,53.20
2017-06-24T04:29:19.245Z,53.10
2017-06-24T04:31:46.741Z,53.20
2017-06-24T04:34:14.233Z,53.10
2017-06-24T04:36:41.742Z,53.10
2017-06-24T04:39:09.233Z,53.00
2017-06-24T04:41:36.738Z,52.90
2017-06-24T04:44:04.239Z,52.60
2017-06-24T04:46:31.741Z,52.90
2017-06-24T04:48:59.249Z,52.00
2017-06-24T04:51:26.751Z,52.10
2017-06-24T04:53:54.258Z,52.20
2017-06-24T04:56:21.751Z,51.70
2017-06-24T04:58:49.250Z,51.40
2017-06-24T05:01:16.757Z,51.30
2017-06-24T05:03:44.250Z,51.30
2017-06-24T05:06:11.758Z,51.20
2017-06-24T05:08:39.253Z,51.40
2017-06-24T05:11:06.750Z,51.50
2017-06-24T05:13:34.257Z,51.60
2017-06-24T05:16:01.750Z,51.50
2017-06-24T05:18:29.265Z,51.40
2017-06-24T05:20:56.754Z,51.40
2017-06-24T05:23:24.253Z,51.40
2017-06-24T05:25:51.757Z,51.30
2017-06-24T05:28:19.250Z,51.60
2017-06-24T05:30:46.762Z,51.40
2017-06-24T05:33:14.266Z,51.30
2017-06-24T05:35:41.758Z,51.50
2017-06-24T05:38:09.265Z,51.30
2017-06-24T05:40:36.759Z,51.40
2017-06-24T05:43:04.266Z,51.30
2017-06-24T05:45:31.777Z,51.10
2017-06-24T05:47:59.346Z,51.00
2017-06-24T05:50:26.862Z,50.80
2017-06-24T05:52:54.376Z,50.40
2017-06-24T05:55:21.890Z,50.20
2017-06-24T05:57:49.389Z,50.00
2017-06-24T06:00:16.887Z,50.00
2017-06-24T06:02:44.405Z,49.80
2017-06-24T06:05:11.903Z,49.50
2017-06-24T06:07:39.425Z,49.50
2017-06-24T06:10:06.918Z,49.40
2017-06-24T06:12:34.433Z,49.00
2017-06-24T06:15:01.967Z,49.20
2017-06-24T06:17:29.483Z,49.10
2017-06-24T06:19:56.989Z,48.80
2017-06-24T06:22:24.477Z,48.70
2017-06-24T06:24:51.969Z,48.70
2017-06-24T06:27:19.478Z,48.40
2017-06-24T06:29:46.974Z,48.40
2017-06-24T06:32:14.482Z,48.50
2017-06-24T06:34:41.974Z,48.50
2017-06-24T06:37:09.471Z,48.40
2017-06-24T06:39:36.978Z,48.20
2017-06-24T06:42:04.477Z,47.90
2017-06-24T06:44:31.992Z,48.00
2017-06-24T06:46:59.480Z,47.90
2017-06-24T06:49:26.987Z,47.70
2017-06-24T06:51:54.482Z,48.00
2017-06-24T06:54:21.982Z,47.40
2017-06-24T06:56:49.499Z,47.10
2017-06-24T06:59:16.985Z,46.70
2017-06-24T07:01:44.494Z,46.90
2017-06-24T07:04:11.993Z,46.90
2017-06-24T07:06:39.498Z,46.80
2017-06-24T07:09:06.989Z,47.00
2017-06-24T07:11:34.481Z,46.90
2017-06-24T07:14:01.986Z,46.80
2017-06-24T07:16:29.481Z,46.90
2017-06-24T07:18:56.985Z,46.60
2017-06-24T07:21:24.474Z,46.80
2017-06-24T07:23:51.982Z,46.60
2017-06-24T07:26:19.473Z,46.70
2017-06-24T07:28:46.964Z,46.60
2017-06-24T07:31:14.465Z,46.50
2017-06-24T07:33:41.953Z,46.80
2017-06-24T07:36:09.462Z,46.90
2017-06-24T07:38:36.953Z,46.70
2017-06-24T07:41:04.450Z,46.50
2017-06-24T07:43:31.957Z,46.50
2017-06-24T07:45:59.442Z,46.40
2017-06-24T07:48:26.954Z,46.10
2017-06-24T07:50:54.445Z,45.80
2017-06-24T07:53:21.952Z,45.60
2017-06-24T07:55:49.442Z,45.50
2017-06-24T07:58:16.929Z,45.50
2017-06-24T08:00:44.437Z,45.30
2017-06-24T08:03:11.922Z,45.40
2017-06-24T08:05:39.426Z,45.70
2017-06-24T08:08:06.910Z,45.40
2017-06-24T08:10:34.397Z,45.60
2017-06-24T08:13:01.902Z,45.20
2017-06-24T08:15:29.402Z,45.60
2017-06-24T08:17:56.915Z,45.60
2017-06-24T08:20:24.406Z,45.10
2017-06-24T08:22:51.893Z,45.20
2017-06-24T08:25:19.401Z,44.60
2017-06-24T08:27:46.890Z,44.80
2017-06-24T08:30:14.398Z,44.60
2017-06-24T08:32:41.885Z,44.70
2017-06-24T08:35:09.382Z,44.30
2017-06-24T08:37:36.889Z,44.40
2017-06-24T08:40:04.382Z,44.00
2017-06-24T08:42:31.889Z,44.10
2017-06-24T08:44:59.374Z,43.80
2017-06-24T08:47:26.869Z,43.50
2017-06-24T08:49:54.373Z,43.30
2017-06-24T08:52:21.866Z,42.70
2017-06-24T08:54:49.369Z,42.50
2017-06-24T08:57:16.865Z,41.60
2017-06-24T08:59:44.353Z,41.80
2017-06-24T09:02:11.865Z,41.70
2017-06-24T09:04:39.349Z,40.80
2017-06-24T09:07:06.857Z,40.80
2017-06-24T09:09:34.353Z,41.00
2017-06-24T09:12:01.843Z,40.50
2017-06-24T09:14:29.346Z,40.90
2017-06-24T09:16:56.833Z,40.80
2017-06-24T09:19:24.338Z,40.50
2017-06-24T09:21:51.821Z,40.70
2017-06-24T09:24:19.305Z,40.60
2017-06-24T09:26:46.817Z,40.40
2017-06-24T09:29:14.304Z,40.40
2017-06-24T09:31:41.814Z,40.50
2017-06-24T09:34:09.306Z,39.90
2017-06-24T09:36:36.813Z,39.80
2017-06-24T09:39:04.306Z,39.90
2017-06-24T09:41:31.793Z,39.70
2017-06-24T09:43:59.309Z,39.40
2017-06-24T09:46:26.801Z,39.40
2017-06-24T09:48:54.310Z,39.40
2017-06-24T09:51:21.809Z,39.00
2017-06-24T09:53:49.326Z,38.80
2017-06-24T09:56:16.814Z,39.70
2017-06-24T09:58:44.306Z,39.30
2017-06-24T10:01:11.815Z,39.90
2017-06-24T10:03:39.312Z,39.40
2017-06-24T10:06:06.822Z,39.30
2017-06-24T10:08:34.317Z,39.20
2017-06-24T10:11:01.806Z,39.20
2017-06-24T10:13:29.310Z,39.10
2017-06-24T10:15:56.793Z,39.00
2017-06-24T10:18:24.307Z,38.90
2017-06-24T10:20:51.794Z,39.10
2017-06-24T10:23:19.297Z,39.30
2017-06-24T10:25:46.792Z,39.20
2017-06-24T10:28:14.285Z,39.10
2017-06-24T10:30:41.801Z,38.90
2017-06-24T10:33:09.290Z,38.70
2017-06-24T10:35:36.797Z,38.50
2017-06-24T10:38:04.290Z,38.70
2017-06-24T10:40:31.805Z,39.20
2017-06-24T10:42:59.305Z,39.00
2017-06-24T10:45:26.799Z,38.90
2017-06-24T10:47:54.310Z,38.70
2017-06-24T10:50:21.805Z,38.90
2017-06-24T10:52:49.315Z,38.90
2017-06-24T10:55:16.799Z,39.00
2017-06-24T10:57:44.298Z,39.10
2017-06-24T11:00:11.811Z,39.10
2017-06-24T11:02:39.422Z,38.60
2017-06-24T11:05:06.930Z,38.30
2017-06-24T11:07:34.426Z,38.20
2017-06-24T11:10:01.916Z,38.80
2017-06-24T11:12:29.429Z,38.40
2017-06-24T11:14:56.926Z,38.60
2017-06-24T11:17:24.442Z,38.00
2017-06-24T11:19:51.937Z,38.00
2017-06-24T11:22:19.430Z,38.30
2017-06-24T11:24:46.942Z,37.50
2017-06-24T11:27:14.433Z,37.70
2017-06-24T11:29:41.954Z,37.80
2017-06-24T11:32:09.450Z,37.70
2017-06-24T11:34:36.946Z,37.70
2017-06-24T11:37:04.462Z,38.00
2017-06-24T11:39:31.957Z,38.20
2017-06-24T11:41:59.469Z,38.10
2017-06-24T11:44:26.968Z,37.80
2017-06-24T11:46:54.485Z,37.80
2017-06-24T11:49:21.981Z,38.00
2017-06-24T11:51:49.474Z,37.70
2017-06-24T11:54:16.990Z,37.80
2017-06-24T11:56:44.485Z,38.10
2017-06-24T11:59:12.018Z,38.00
2017-06-24T12:01:39.517Z,38.10
2017-06-24T12:04:07.038Z,38.00
2017-06-24T12:06:34.534Z,37.90
2017-06-24T12:09:02.034Z,37.90
2017-06-24T12:11:29.546Z,38.00
2017-06-24T12:13:57.037Z,38.30
2017-06-24T12:16:24.542Z,38.40
2017-06-24T12:18:52.037Z,38.60
2017-06-24T12:21:19.554Z,38.90
2017-06-24T12:23:47.051Z,38.40
2017-06-24T12:26:14.541Z,38.30
2017-06-24T12:28:42.057Z,38.50
2017-06-24T12:31:09.554Z,38.60
2017-06-24T12:33:37.070Z,38.70
2017-06-24T12:36:04.569Z,38.40
2017-06-24T12:38:32.089Z,38.30
2017-06-24T12:40:59.581Z,38.40
2017-06-24T12:43:27.081Z,37.80
2017-06-24T12:45:54.593Z,37.40
2017-06-24T12:48:22.090Z,37.50
2017-06-24T12:50:49.610Z,37.20
2017-06-24T12:53:17.109Z,37.20
2017-06-24T12:55:44.601Z,37.00
2017-06-24T12:58:12.119Z,37.30
2017-06-24T13:00:39.617Z,36.80
2017-06-24T13:03:07.134Z,37.20
2017-06-24T13:05:34.630Z,37.30
2017-06-24T13:08:02.134Z,37.50
2017-06-24T13:10:29.645Z,36.80
2017-06-24T13:12:57.153Z,36.90
2017-06-24T13:15:24.854Z,36.90
2017-06-24T13:17:52.353Z,37.10
2017-06-24T13:20:19.853Z,37.60
2017-06-24T13:22:47.367Z,37.60
2017-06-24T13:25:14.982Z,37.60
2017-06-24T13:27:42.498Z,37.70
2017-06-24T13:30:09.996Z,37.70
2017-06-24T13:32:37.514Z,37.30
2017-06-24T13:35:05.051Z,37.20
2017-06-24T13:37:32.550Z,37.10
2017-06-24T13:40:00.114Z,36.30
2017-06-24T13:42:27.793Z,36.50
2017-06-24T13:44:56.258Z,36.90
2017-06-24T13:47:23.943Z,36.70
2017-06-24T13:49:52.192Z,36.40
2017-06-24T13:52:19.999Z,36.60
2017-06-24T13:54:47.498Z,36.90
2017-06-24T13:57:15.016Z,36.60
2017-06-24T13:59:42.729Z,36.50
2017-06-24T14:02:10.316Z,36.60
2017-06-24T14:04:37.835Z,36.50
2017-06-24T14:07:05.623Z,36.50
2017-06-24T14:09:33.154Z,36.50
2017-06-24T14:12:00.659Z,36.00
2017-06-24T14:14:28.182Z,35.90
2017-06-24T14:16:55.685Z,36.40
2017-06-24T14:19:23.202Z,36.00
2017-06-24T14:21:50.701Z,36.40
2017-06-24T14:24:19.101Z,36.90
2017-06-24T14:26:46.605Z,36.60
2017-06-24T14:29:14.105Z,36.20
2017-06-24T14:31:41.659Z,36.00
2017-06-24T14:34:09.210Z,36.00
2017-06-24T14:36:36.721Z,35.40
2017-06-24T14:39:04.947Z,35.60
2017-06-24T14:41:32.461Z,35.90
2017-06-24T14:43:59.962Z,36.00
2017-06-24T14:46:27.461Z,36.30
2017-06-24T14:48:54.974Z,35.80
2017-06-24T14:51:22.474Z,35.60
2017-06-24T14:53:50.005Z,34.50
2017-06-24T14:56:17.523Z,34.50
2017-06-24T14:58:45.053Z,35.30
2017-06-24T15:01:13.818Z,35.00
2017-06-24T15:03:41.564Z,35.30
2017-06-24T15:06:09.133Z,35.60
2017-06-24T15:08:36.621Z,35.20
2017-06-24T15:11:04.139Z,34.90
2017-06-24T15:13:31.634Z,34.70
2017-06-24T15:15:59.160Z,34.10
2017-06-24T15:18:26.653Z,34.30
2017-06-24T15:20:54.170Z,34.30
2017-06-24T15:23:21.865Z,33.90
2017-06-24T15:25:49.367Z,34.10
2017-06-24T15:28:16.878Z,34.10
2017-06-24T15:30:44.369Z,34.30
2017-06-24T15:33:11.877Z,34.30
2017-06-24T15:35:39.365Z,33.70
2017-06-24T15:38:06.893Z,33.60
2017-06-24T15:40:34.386Z,33.70
2017-06-24T15:43:01.886Z,33.80
2017-06-24T15:45:29.399Z,34.00
2017-06-24T15:47:56.969Z,34.10
2017-06-24T15:50:24.487Z,34.30
2017-06-24T15:52:51.998Z,34.30
2017-06-24T15:55:19.514Z,34.60
2017-06-24T15:57:47.012Z,34.90
2017-06-24T16:00:14.538Z,34.90
2017-06-24T16:02:42.034Z,34.60
2017-06-24T16:05:09.534Z,34.90
2017-06-24T16:07:37.058Z,35.00
2017-06-24T16:10:04.553Z,35.00
2017-06-24T16:12:32.141Z,35.10
2017-06-24T16:14:59.675Z,35.30
2017-06-24T16:17:27.202Z,34.90
2017-06-24T16:19:54.752Z,35.00
2017-06-24T16:22:22.344Z,35.40
2017-06-24T16:24:49.886Z,35.50
2017-06-24T16:27:17.382Z,35.60
2017-06-24T16:29:44.950Z,35.50
2017-06-24T16:32:12.845Z,35.50
2017-06-24T16:34:40.808Z,35.80
2017-06-24T16:37:08.452Z,35.70
2017-06-24T16:39:36.228Z,35.40
2017-06-24T16:42:03.891Z,35.20
2017-06-24T16:44:31.391Z,34.90
2017-06-24T16:47:00.703Z,34.80
2017-06-24T16:49:28.202Z,34.80
2017-06-24T16:51:55.718Z,35.10
2017-06-24T16:54:23.217Z,35.00
2017-06-24T16:56:50.735Z,35.20
2017-06-24T16:59:18.231Z,34.90
2017-06-24T17:01:45.804Z,34.80
2017-06-24T17:04:13.334Z,34.70
2017-06-24T17:06:40.833Z,34.40
2017-06-24T17:09:08.342Z,34.40
2017-06-24T17:11:35.838Z,34.10
2017-06-24T17:14:03.351Z,34.10
2017-06-24T17:16:30.851Z,34.30
2017-06-24T17:18:58.373Z,34.40
2017-06-24T17:21:25.872Z,34.80
2017-06-24T17:23:53.371Z,35.00
2017-06-24T17:26:20.881Z,35.40
2017-06-24T17:28:48.369Z,35.50
2017-06-24T17:31:15.878Z,35.70
2017-06-24T17:33:43.376Z,35.90
2017-06-24T17:36:10.894Z,36.00
2017-06-24T17:38:39.417Z,36.20
2017-06-24T17:41:06.943Z,36.50
2017-06-24T17:43:34.442Z,36.70
2017-06-24T17:46:01.941Z,36.60
2017-06-24T17:48:29.460Z,37.00
2017-06-24T17:50:56.969Z,37.10
2017-06-24T17:53:24.480Z,37.50
2017-06-24T17:55:51.981Z,37.60
2017-06-24T17:58:19.505Z,37.60
2017-06-24T18:00:47.006Z,37.60
2017-06-24T18:03:14.506Z,37.80
2017-06-24T18:05:42.021Z,38.40
2017-06-24T18:08:09.541Z,38.50
2017-06-24T18:10:37.049Z,38.40
2017-06-24T18:13:04.555Z,38.40
2017-06-24T18:15:32.069Z,38.30
2017-06-24T18:17:59.567Z,38.50
2017-06-24T18:20:27.097Z,38.60
2017-06-24T18:22:54.598Z,38.80
2017-06-24T18:25:22.092Z,39.70
2017-06-24T18:27:49.609Z,39.30
2017-06-24T18:30:17.102Z,39.50
2017-06-24T18:32:44.613Z,39.80
2017-06-24T18:35:12.109Z,40.10
2017-06-24T18:37:39.623Z,40.20
2017-06-24T18:40:07.122Z,40.20
2017-06-24T18:42:34.637Z,40.10
2017-06-24T18:45:02.133Z,40.20
2017-06-24T18:47:29.625Z,40.30
2017-06-24T18:49:57.134Z,40.50
2017-06-24T18:52:24.632Z,40.50
2017-06-24T18:54:52.142Z,40.60
2017-06-24T18:57:19.635Z,40.70
2017-06-24T18:59:47.145Z,40.80
2017-06-24T19:02:14.754Z,40.90
2017-06-24T19:04:42.270Z,41.00
2017-06-24T19:07:09.758Z,41.10
2017-06-24T19:09:37.253Z,41.30
2017-06-24T19:12:04.763Z,41.40
2017-06-24T19:14:32.254Z,41.60
2017-06-24T19:16:59.761Z,41.70
2017-06-24T19:19:27.259Z,41.80
2017-06-24T19:21:54.790Z,41.90
2017-06-24T19:24:22.285Z,41.90
2017-06-24T19:26:49.777Z,42.20
2017-06-24T19:29:17.293Z,42.40
2017-06-24T19:31:44.790Z,42.50
2017-06-24T19:34:12.297Z,42.70
2017-06-24T19:36:39.787Z,42.80
2017-06-24T19:39:07.320Z,42.90
2017-06-24T19:41:34.818Z,43.00
2017-06-24T19:44:02.309Z,43.10
2017-06-24T19:46:29.821Z,44.10
2017-06-24T19:48:57.313Z,43.30
2017-06-24T19:51:24.821Z,43.30
2017-06-24T19:53:52.313Z,43.40
2017-06-24T19:56:19.826Z,43.50
2017-06-24T19:58:47.318Z,43.70
2017-06-24T20:01:14.813Z,43.80
2017-06-24T20:04:17.822Z,43.80
2017-06-24T20:06:45.333Z,44.00
2017-06-24T20:09:12.822Z,44.20
2017-06-24T20:11:40.318Z,44.30
2017-06-24T20:14:07.825Z,44.40
2017-06-24T20:16:35.320Z,44.50
2017-06-24T20:19:02.825Z,44.60
2017-06-24T20:21:30.314Z,44.80
2017-06-24T20:23:57.821Z,44.80
2017-06-24T20:26:25.314Z,45.00
2017-06-24T20:28:52.829Z,45.20
2017-06-24T20:31:20.317Z,45.30
2017-06-24T20:33:47.800Z,45.30
2017-06-24T20:36:15.306Z,45.50
2017-06-24T20:38:42.801Z,45.60
2017-06-24T20:41:10.313Z,45.80
2017-06-24T20:43:37.805Z,45.90
2017-06-24T20:46:05.310Z,46.10
2017-06-24T20:48:32.801Z,46.10
2017-06-24T20:51:00.309Z,46.20
2017-06-24T20:53:27.806Z,46.30
2017-06-24T20:55:55.297Z,46.40
2017-06-24T20:58:22.805Z,46.50
2017-06-24T21:00:50.315Z,46.50
2017-06-24T21:03:17.826Z,46.60
2017-06-24T21:05:45.313Z,46.80
2017-06-24T21:08:12.821Z,46.80
2017-06-24T21:10:40.309Z,46.90
2017-06-24T21:13:07.799Z,47.00
2017-06-24T21:15:35.300Z,47.10
2017-06-24T21:18:02.793Z,47.10
2017-06-24T21:20:30.310Z,47.20
2017-06-24T21:22:57.837Z,47.20
2017-06-24T21:25:25.349Z,47.20
2017-06-24T21:27:52.837Z,47.40
2017-06-24T21:30:20.333Z,47.60
2017-06-24T21:32:47.842Z,47.70
2017-06-24T21:35:15.333Z,47.70
2017-06-24T21:37:42.843Z,47.70
2017-06-24T21:40:10.347Z,47.90
2017-06-24T21:42:37.865Z,47.90
2017-06-24T21:45:05.357Z,47.90
2017-06-24T21:47:32.849Z,48.00
2017-06-24T21:50:00.361Z,48.10
2017-06-24T21:52:27.854Z,48.70
2017-06-24T21:54:55.358Z,48.30
2017-06-24T21:57:22.853Z,48.50
2017-06-24T21:59:50.362Z,48.80
2017-06-24T22:02:17.849Z,48.90
2017-06-24T22:04:45.346Z,49.20
2017-06-24T22:07:12.858Z,49.40
2017-06-24T22:09:40.344Z,49.60
2017-06-24T22:12:07.856Z,49.80
2017-06-24T22:14:35.350Z,50.00
2017-06-24T22:17:02.861Z,50.10
2017-06-24T22:19:30.353Z,50.40
2017-06-24T22:21:57.846Z,50.60
2017-06-24T22:24:25.353Z,50.80
2017-06-24T22:26:52.846Z,50.90
2017-06-24T22:29:20.353Z,51.00
2017-06-24T22:31:47.841Z,51.20
2017-06-24T22:34:15.338Z,51.30
2017-06-24T22:36:42.845Z,51.60
2017-06-24T22:39:10.334Z,51.70
2017-06-24T22:41:37.834Z,51.70
2017-06-24T22:44:05.322Z,51.90
2017-06-24T22:46:32.814Z,52.00
2017-06-24T22:49:00.334Z,52.10
2017-06-24T22:51:27.821Z,52.20
2017-06-24T22:53:55.325Z,52.30
2017-06-24T22:56:22.813Z,52.30
2017-06-24T22:58:50.301Z,52.40
2017-06-24T23:01:17.806Z,52.30
2017-06-24T23:03:45.309Z,52.50
2017-06-24T23:06:12.821Z,52.60
2017-06-24T23:08:40.313Z,52.60
2017-06-24T23:11:07.818Z,52.70
2017-06-24T23:13:35.325Z,52.90
2017-06-24T23:16:02.825Z,52.90
2017-06-24T23:18:30.329Z,53.10
2017-06-24T23:20:57.817Z,53.10
2017-06-24T23:23:25.326Z,53.30
2017-06-24T23:25:52.818Z,53.30
2017-06-24T23:28:20.318Z,53.40
2017-06-24T23:30:47.826Z,53.50
2017-06-24T23:33:15.317Z,53.60
2017-06-24T23:35:42.825Z,53.70
2017-06-24T23:38:10.317Z,54.30
2017-06-24T23:40:37.829Z,53.70
2017-06-24T23:43:05.320Z,53.90
2017-06-24T23:45:32.809Z,54.00
2017-06-24T23:48:00.317Z,54.00
2017-06-24T23:50:27.809Z,54.00
2017-06-24T23:52:55.318Z,54.20
2017-06-24T23:55:22.810Z,54.30
2017-06-24T23:57:50.322Z,54.40
